sensor_id;sensor_type;location;lat;lon;timestamp;P1;durP1;ratioP1;P2;durP2;ratioP2
15474;SDS011;7839;50.462;9.678;2023-03-31T00:06:33;1.87;;;1.10;;
15474;SDS011;7839;50.462;9.678;2023-03-31T00:13:17;1.67;;;1.00;;
15474;SDS011;7839;50.462;9.678;2023-03-31T00:19:57;1.93;;;1.00;;
15474;SDS011;7839;50.462;9.678;2023-03-31T00:26:40;3.00;;;1.07;;
15474;SDS011;7839;50.462;9.678;2023-03-31T00:33:20;1.37;;;0.80;;
15474;SDS011;7839;50.462;9.678;2023-03-31T00:40:01;2.77;;;0.90;;
15474;SDS011;7839;50.462;9.678;2023-03-31T00:46:55;1.67;;;0.67;;
15474;SDS011;7839;50.462;9.678;2023-03-31T00:53:35;2.60;;;1.03;;
15474;SDS011;7839;50.462;9.678;2023-03-31T01:00:22;2.20;;;1.10;;
15474;SDS011;7839;50.462;9.678;2023-03-31T01:07:07;1.40;;;0.77;;
15474;SDS011;7839;50.462;9.678;2023-03-31T01:13:51;1.70;;;0.80;;
15474;SDS011;7839;50.462;9.678;2023-03-31T01:35:21;1.13;;;0.83;;
15474;SDS011;7839;50.462;9.678;2023-03-31T01:48:15;4.70;;;1.10;;
15474;SDS011;7839;50.462;9.678;2023-03-31T02:01:57;1.70;;;0.90;;
15474;SDS011;7839;50.462;9.678;2023-03-31T02:08:53;1.47;;;0.80;;
15474;SDS011;7839;50.462;9.678;2023-03-31T02:15:35;2.83;;;0.80;;
15474;SDS011;7839;50.462;9.678;2023-03-31T02:22:17;2.00;;;0.83;;
15474;SDS011;7839;50.462;9.678;2023-03-31T02:28:59;1.00;;;0.70;;
15474;SDS011;7839;50.462;9.678;2023-03-31T02:35:39;1.37;;;0.73;;
15474;SDS011;7839;50.462;9.678;2023-03-31T02:42:19;1.63;;;0.80;;
15474;SDS011;7839;50.462;9.678;2023-03-31T02:49:00;1.47;;;0.70;;
15474;SDS011;7839;50.462;9.678;2023-03-31T02:56:05;2.10;;;0.83;;
15474;SDS011;7839;50.462;9.678;2023-03-31T03:02:52;1.40;;;0.70;;
15474;SDS011;7839;50.462;9.678;2023-03-31T03:09:50;2.60;;;0.83;;
15474;SDS011;7839;50.462;9.678;2023-03-31T03:16:41;4.20;;;1.03;;
15474;SDS011;7839;50.462;9.678;2023-03-31T03:23:22;2.43;;;0.90;;
15474;SDS011;7839;50.462;9.678;2023-03-31T03:30:03;4.40;;;1.10;;
15474;SDS011;7839;50.462;9.678;2023-03-31T03:36:45;2.50;;;0.90;;
15474;SDS011;7839;50.462;9.678;2023-03-31T03:43:26;1.43;;;0.57;;
15474;SDS011;7839;50.462;9.678;2023-03-31T03:50:06;3.10;;;0.90;;
15474;SDS011;7839;50.462;9.678;2023-03-31T03:56:46;1.90;;;0.90;;
15474;SDS011;7839;50.462;9.678;2023-03-31T04:03:27;2.10;;;0.73;;
15474;SDS011;7839;50.462;9.678;2023-03-31T04:10:07;1.53;;;0.90;;
15474;SDS011;7839;50.462;9.678;2023-03-31T04:16:47;3.40;;;1.37;;
15474;SDS011;7839;50.462;9.678;2023-03-31T04:23:28;2.53;;;0.90;;
15474;SDS011;7839;50.462;9.678;2023-03-31T04:30:09;3.87;;;0.90;;
15474;SDS011;7839;50.462;9.678;2023-03-31T04:36:51;2.73;;;1.23;;
15474;SDS011;7839;50.462;9.678;2023-03-31T04:43:35;3.00;;;1.17;;
15474;SDS011;7839;50.462;9.678;2023-03-31T04:50:15;4.30;;;1.43;;
15474;SDS011;7839;50.462;9.678;2023-03-31T04:56:56;2.87;;;1.37;;
15474;SDS011;7839;50.462;9.678;2023-03-31T05:03:37;3.13;;;1.07;;
15474;SDS011;7839;50.462;9.678;2023-03-31T05:10:17;3.90;;;1.10;;
15474;SDS011;7839;50.462;9.678;2023-03-31T05:16:57;2.40;;;1.00;;
15474;SDS011;7839;50.462;9.678;2023-03-31T05:23:38;2.27;;;0.90;;
15474;SDS011;7839;50.462;9.678;2023-03-31T05:30:18;1.90;;;1.00;;
15474;SDS011;7839;50.462;9.678;2023-03-31T05:36:58;2.77;;;1.00;;
15474;SDS011;7839;50.462;9.678;2023-03-31T05:43:39;2.83;;;0.95;;
15474;SDS011;7839;50.462;9.678;2023-03-31T05:50:19;1.10;;;0.90;;
15474;SDS011;7839;50.462;9.678;2023-03-31T05:57:00;2.07;;;0.90;;
15474;SDS011;7839;50.462;9.678;2023-03-31T06:03:41;1.00;;;0.80;;
15474;SDS011;7839;50.462;9.678;2023-03-31T06:10:21;1.00;;;0.77;;
15474;SDS011;7839;50.462;9.678;2023-03-31T06:17:01;2.20;;;0.90;;
15474;SDS011;7839;50.462;9.678;2023-03-31T06:23:42;1.43;;;0.80;;
15474;SDS011;7839;50.462;9.678;2023-03-31T06:30:25;3.77;;;1.20;;
15474;SDS011;7839;50.462;9.678;2023-03-31T06:37:06;2.97;;;1.33;;
15474;SDS011;7839;50.462;9.678;2023-03-31T06:43:47;2.87;;;1.17;;
15474;SDS011;7839;50.462;9.678;2023-03-31T06:50:27;4.43;;;1.43;;
15474;SDS011;7839;50.462;9.678;2023-03-31T06:57:07;1.20;;;1.00;;
15474;SDS011;7839;50.462;9.678;2023-03-31T07:03:48;2.53;;;0.93;;
15474;SDS011;7839;50.462;9.678;2023-03-31T07:10:28;2.53;;;1.03;;
15474;SDS011;7839;50.462;9.678;2023-03-31T07:17:09;1.63;;;0.90;;
15474;SDS011;7839;50.462;9.678;2023-03-31T07:23:49;1.43;;;0.80;;
15474;SDS011;7839;50.462;9.678;2023-03-31T07:30:30;2.73;;;1.03;;
15474;SDS011;7839;50.462;9.678;2023-03-31T07:37:10;2.07;;;1.00;;
15474;SDS011;7839;50.462;9.678;2023-03-31T07:43:50;1.77;;;1.33;;
15474;SDS011;7839;50.462;9.678;2023-03-31T07:50:32;3.20;;;1.10;;
15474;SDS011;7839;50.462;9.678;2023-03-31T07:57:12;1.50;;;1.03;;
15474;SDS011;7839;50.462;9.678;2023-03-31T08:03:54;1.47;;;0.93;;
15474;SDS011;7839;50.462;9.678;2023-03-31T08:10:34;2.07;;;1.07;;
15474;SDS011;7839;50.462;9.678;2023-03-31T08:17:14;1.55;;;0.90;;
15474;SDS011;7839;50.462;9.678;2023-03-31T08:23:55;2.17;;;1.10;;
15474;SDS011;7839;50.462;9.678;2023-03-31T08:30:38;2.70;;;1.43;;
15474;SDS011;7839;50.462;9.678;2023-03-31T08:37:19;1.57;;;1.40;;
15474;SDS011;7839;50.462;9.678;2023-03-31T08:44:00;1.63;;;1.23;;
15474;SDS011;7839;50.462;9.678;2023-03-31T08:50:43;2.37;;;1.13;;
15474;SDS011;7839;50.462;9.678;2023-03-31T08:57:25;1.13;;;0.90;;
15474;SDS011;7839;50.462;9.678;2023-03-31T09:10:54;1.40;;;1.30;;
15474;SDS011;7839;50.462;9.678;2023-03-31T09:17:40;2.87;;;1.30;;
15474;SDS011;7839;50.462;9.678;2023-03-31T09:24:22;1.90;;;1.20;;
15474;SDS011;7839;50.462;9.678;2023-03-31T09:31:21;1.60;;;1.23;;
15474;SDS011;7839;50.462;9.678;2023-03-31T09:38:02;1.20;;;1.10;;
15474;SDS011;7839;50.462;9.678;2023-03-31T09:44:43;1.57;;;1.43;;
15474;SDS011;7839;50.462;9.678;2023-03-31T09:51:26;1.77;;;1.27;;
15474;SDS011;7839;50.462;9.678;2023-03-31T09:58:13;1.90;;;1.50;;
15474;SDS011;7839;50.462;9.678;2023-03-31T10:04:53;1.43;;;1.20;;
15474;SDS011;7839;50.462;9.678;2023-03-31T10:11:34;3.23;;;1.47;;
15474;SDS011;7839;50.462;9.678;2023-03-31T10:18:15;1.50;;;1.40;;
15474;SDS011;7839;50.462;9.678;2023-03-31T10:25:06;1.90;;;1.17;;
15474;SDS011;7839;50.462;9.678;2023-03-31T10:31:48;1.70;;;1.20;;
15474;SDS011;7839;50.462;9.678;2023-03-31T10:38:29;2.23;;;1.70;;
15474;SDS011;7839;50.462;9.678;2023-03-31T10:45:12;2.80;;;1.20;;
15474;SDS011;7839;50.462;9.678;2023-03-31T10:51:53;2.33;;;1.53;;
15474;SDS011;7839;50.462;9.678;2023-03-31T11:05:29;1.67;;;1.10;;
15474;SDS011;7839;50.462;9.678;2023-03-31T11:25:57;1.63;;;1.33;;
15474;SDS011;7839;50.462;9.678;2023-03-31T11:39:46;2.00;;;1.10;;
15474;SDS011;7839;50.462;9.678;2023-03-31T11:46:45;5.23;;;1.40;;
15474;SDS011;7839;50.462;9.678;2023-03-31T11:53:31;2.63;;;0.80;;
15474;SDS011;7839;50.462;9.678;2023-03-31T12:00:16;2.87;;;1.00;;
15474;SDS011;7839;50.462;9.678;2023-03-31T12:20:47;1.27;;;0.90;;
15474;SDS011;7839;50.462;9.678;2023-03-31T12:27:36;2.23;;;1.07;;
15474;SDS011;7839;50.462;9.678;2023-03-31T12:34:19;1.00;;;0.70;;
15474;SDS011;7839;50.462;9.678;2023-03-31T12:54:49;1.30;;;0.90;;
15474;SDS011;7839;50.462;9.678;2023-03-31T13:01:32;3.03;;;0.80;;
15474;SDS011;7839;50.462;9.678;2023-03-31T13:08:47;1.70;;;1.00;;
15474;SDS011;7839;50.462;9.678;2023-03-31T13:15:13;1.30;;;0.83;;
15474;SDS011;7839;50.462;9.678;2023-03-31T13:21:55;1.63;;;1.00;;
15474;SDS011;7839;50.462;9.678;2023-03-31T13:28:39;2.83;;;1.00;;
15474;SDS011;7839;50.462;9.678;2023-03-31T13:35:23;2.83;;;1.30;;
15474;SDS011;7839;50.462;9.678;2023-03-31T14:09:28;0.97;;;0.73;;
15474;SDS011;7839;50.462;9.678;2023-03-31T14:16:12;1.90;;;0.83;;
15474;SDS011;7839;50.462;9.678;2023-03-31T14:23:06;2.40;;;0.83;;
15474;SDS011;7839;50.462;9.678;2023-03-31T14:43:18;1.33;;;0.63;;
15474;SDS011;7839;50.462;9.678;2023-03-31T14:50:15;1.53;;;0.90;;
15474;SDS011;7839;50.462;9.678;2023-03-31T14:57:02;2.43;;;1.00;;
15474;SDS011;7839;50.462;9.678;2023-03-31T15:03:43;1.77;;;0.80;;
15474;SDS011;7839;50.462;9.678;2023-03-31T15:10:25;2.13;;;0.90;;
15474;SDS011;7839;50.462;9.678;2023-03-31T15:17:15;1.83;;;0.80;;
15474;SDS011;7839;50.462;9.678;2023-03-31T15:23:57;2.13;;;0.73;;
15474;SDS011;7839;50.462;9.678;2023-03-31T15:30:37;1.90;;;0.77;;
15474;SDS011;7839;50.462;9.678;2023-03-31T15:37:25;1.40;;;0.80;;
15474;SDS011;7839;50.462;9.678;2023-03-31T15:44:07;1.80;;;0.90;;
15474;SDS011;7839;50.462;9.678;2023-03-31T15:51:13;2.90;;;1.03;;
15474;SDS011;7839;50.462;9.678;2023-03-31T15:57:56;2.80;;;0.93;;
15474;SDS011;7839;50.462;9.678;2023-03-31T16:04:37;1.53;;;0.90;;
15474;SDS011;7839;50.462;9.678;2023-03-31T16:11:19;1.10;;;0.80;;
15474;SDS011;7839;50.462;9.678;2023-03-31T16:18:09;1.60;;;0.87;;
15474;SDS011;7839;50.462;9.678;2023-03-31T16:24:51;1.53;;;0.97;;
15474;SDS011;7839;50.462;9.678;2023-03-31T16:31:32;1.10;;;0.97;;
15474;SDS011;7839;50.462;9.678;2023-03-31T16:38:13;1.73;;;0.63;;
15474;SDS011;7839;50.462;9.678;2023-03-31T16:44:57;1.53;;;0.77;;
15474;SDS011;7839;50.462;9.678;2023-03-31T16:51:37;1.37;;;0.73;;
15474;SDS011;7839;50.462;9.678;2023-03-31T16:58:17;2.03;;;0.90;;
15474;SDS011;7839;50.462;9.678;2023-03-31T17:04:58;2.13;;;1.17;;
15474;SDS011;7839;50.462;9.678;2023-03-31T17:11:39;1.97;;;0.90;;
15474;SDS011;7839;50.462;9.678;2023-03-31T17:18:20;1.00;;;0.60;;
15474;SDS011;7839;50.462;9.678;2023-03-31T17:25:01;2.70;;;0.63;;
15474;SDS011;7839;50.462;9.678;2023-03-31T17:31:42;1.10;;;0.70;;
15474;SDS011;7839;50.462;9.678;2023-03-31T17:38:23;1.57;;;0.90;;
15474;SDS011;7839;50.462;9.678;2023-03-31T17:45:03;3.33;;;1.00;;
15474;SDS011;7839;50.462;9.678;2023-03-31T17:51:44;2.23;;;1.20;;
15474;SDS011;7839;50.462;9.678;2023-03-31T17:58:24;1.90;;;0.90;;
15474;SDS011;7839;50.462;9.678;2023-03-31T18:05:06;1.90;;;0.83;;
15474;SDS011;7839;50.462;9.678;2023-03-31T18:11:47;2.40;;;1.33;;
15474;SDS011;7839;50.462;9.678;2023-03-31T18:18:27;2.83;;;1.50;;
15474;SDS011;7839;50.462;9.678;2023-03-31T18:25:08;1.87;;;1.67;;
15474;SDS011;7839;50.462;9.678;2023-03-31T18:31:48;3.00;;;1.70;;
15474;SDS011;7839;50.462;9.678;2023-03-31T18:38:29;2.67;;;1.60;;
15474;SDS011;7839;50.462;9.678;2023-03-31T18:45:09;3.30;;;1.80;;
15474;SDS011;7839;50.462;9.678;2023-03-31T18:51:49;3.43;;;1.57;;
15474;SDS011;7839;50.462;9.678;2023-03-31T18:58:30;1.63;;;1.37;;
15474;SDS011;7839;50.462;9.678;2023-03-31T19:05:11;2.63;;;1.30;;
15474;SDS011;7839;50.462;9.678;2023-03-31T19:11:52;2.00;;;1.67;;
15474;SDS011;7839;50.462;9.678;2023-03-31T19:18:33;2.30;;;1.47;;
15474;SDS011;7839;50.462;9.678;2023-03-31T19:25:13;2.73;;;1.37;;
15474;SDS011;7839;50.462;9.678;2023-03-31T19:31:57;1.70;;;1.40;;
15474;SDS011;7839;50.462;9.678;2023-03-31T19:38:39;2.97;;;1.20;;
15474;SDS011;7839;50.462;9.678;2023-03-31T19:45:20;2.63;;;1.40;;
15474;SDS011;7839;50.462;9.678;2023-03-31T19:52:00;2.70;;;1.37;;
15474;SDS011;7839;50.462;9.678;2023-03-31T19:58:40;2.80;;;1.40;;
15474;SDS011;7839;50.462;9.678;2023-03-31T20:05:22;3.90;;;1.00;;
15474;SDS011;7839;50.462;9.678;2023-03-31T20:12:04;3.07;;;1.27;;
15474;SDS011;7839;50.462;9.678;2023-03-31T20:18:49;2.03;;;1.00;;
15474;SDS011;7839;50.462;9.678;2023-03-31T20:25:30;1.20;;;0.90;;
15474;SDS011;7839;50.462;9.678;2023-03-31T20:32:12;2.30;;;1.10;;
15474;SDS011;7839;50.462;9.678;2023-03-31T20:38:56;1.10;;;1.00;;
15474;SDS011;7839;50.462;9.678;2023-03-31T20:45:39;3.77;;;1.37;;
15474;SDS011;7839;50.462;9.678;2023-03-31T20:52:20;3.17;;;1.07;;
15474;SDS011;7839;50.462;9.678;2023-03-31T20:59:02;1.63;;;0.93;;
15474;SDS011;7839;50.462;9.678;2023-03-31T21:05:44;1.17;;;0.60;;
15474;SDS011;7839;50.462;9.678;2023-03-31T21:12:25;1.03;;;0.60;;
15474;SDS011;7839;50.462;9.678;2023-03-31T21:19:05;2.27;;;0.93;;
15474;SDS011;7839;50.462;9.678;2023-03-31T21:25:46;1.67;;;0.90;;
15474;SDS011;7839;50.462;9.678;2023-03-31T21:32:28;1.00;;;0.60;;
15474;SDS011;7839;50.462;9.678;2023-03-31T21:39:08;1.17;;;0.97;;
15474;SDS011;7839;50.462;9.678;2023-03-31T21:45:49;2.53;;;0.83;;
15474;SDS011;7839;50.462;9.678;2023-03-31T21:52:32;1.20;;;0.77;;
15474;SDS011;7839;50.462;9.678;2023-03-31T21:59:12;1.87;;;0.80;;
15474;SDS011;7839;50.462;9.678;2023-03-31T22:05:55;1.83;;;0.90;;
15474;SDS011;7839;50.462;9.678;2023-03-31T22:12:36;1.40;;;0.80;;
15474;SDS011;7839;50.462;9.678;2023-03-31T22:19:17;3.27;;;0.90;;
15474;SDS011;7839;50.462;9.678;2023-03-31T22:25:57;1.73;;;1.10;;
15474;SDS011;7839;50.462;9.678;2023-03-31T22:32:38;2.23;;;0.90;;
15474;SDS011;7839;50.462;9.678;2023-03-31T22:39:18;0.90;;;0.50;;
15474;SDS011;7839;50.462;9.678;2023-03-31T22:46:03;2.10;;;0.47;;
15474;SDS011;7839;50.462;9.678;2023-03-31T22:52:43;1.37;;;0.77;;
15474;SDS011;7839;50.462;9.678;2023-03-31T22:59:24;1.40;;;0.70;;
15474;SDS011;7839;50.462;9.678;2023-03-31T23:06:05;2.10;;;1.10;;
15474;SDS011;7839;50.462;9.678;2023-03-31T23:12:46;1.10;;;0.77;;
15474;SDS011;7839;50.462;9.678;2023-03-31T23:19:26;1.67;;;0.83;;
15474;SDS011;7839;50.462;9.678;2023-03-31T23:26:06;1.83;;;0.37;;
15474;SDS011;7839;50.462;9.678;2023-03-31T23:32:47;2.27;;;0.90;;
15474;SDS011;7839;50.462;9.678;2023-03-31T23:39:27;3.77;;;1.37;;
15474;SDS011;7839;50.462;9.678;2023-03-31T23:46:08;0.83;;;0.60;;
15474;SDS011;7839;50.462;9.678;2023-03-31T23:52:48;3.80;;;1.15;;
15474;SDS011;7839;50.462;9.678;2023-03-31T23:59:29;2.10;;;0.70;;
